sensor_id;sensor_type;location;lat;lon;timestamp;pressure;altitude;pressure_sealevel;temperature
20289;BMP180;10303;51.960;8.372;2022-12-11T00:01:17;99951.00;;;4.40
20289;BMP180;10303;51.960;8.372;2022-12-11T00:03:45;99952.00;;;4.40
20289;BMP180;10303;51.960;8.372;2022-12-11T00:06:15;99952.00;;;4.40
20289;BMP180;10303;51.960;8.372;2022-12-11T00:08:42;99950.00;;;4.50
20289;BMP180;10303;51.960;8.372;2022-12-11T00:11:13;99949.00;;;4.50
20289;BMP180;10303;51.960;8.372;2022-12-11T00:13:40;99952.00;;;4.50
20289;BMP180;10303;51.960;8.372;2022-12-11T00:16:07;99950.00;;;4.50
20289;BMP180;10303;51.960;8.372;2022-12-11T00:18:34;99951.00;;;4.50
20289;BMP180;10303;51.960;8.372;2022-12-11T00:21:06;99954.00;;;4.50
20289;BMP180;10303;51.960;8.372;2022-12-11T00:23:36;99941.00;;;4.50
20289;BMP180;10303;51.960;8.372;2022-12-11T00:26:07;99958.00;;;4.40
20289;BMP180;10303;51.960;8.372;2022-12-11T00:28:35;99953.00;;;4.50
20289;BMP180;10303;51.960;8.372;2022-12-11T00:31:07;99954.00;;;4.40
20289;BMP180;10303;51.960;8.372;2022-12-11T00:33:33;99955.00;;;4.40
20289;BMP180;10303;51.960;8.372;2022-12-11T00:35:59;99961.00;;;4.40
20289;BMP180;10303;51.960;8.372;2022-12-11T00:38:26;99961.00;;;4.40
20289;BMP180;10303;51.960;8.372;2022-12-11T00:40:58;99956.00;;;4.40
20289;BMP180;10303;51.960;8.372;2022-12-11T00:43:24;99955.00;;;4.40
20289;BMP180;10303;51.960;8.372;2022-12-11T00:45:50;99946.00;;;4.40
20289;BMP180;10303;51.960;8.372;2022-12-11T00:48:16;99962.00;;;4.40
20289;BMP180;10303;51.960;8.372;2022-12-11T00:50:42;99961.00;;;4.40
20289;BMP180;10303;51.960;8.372;2022-12-11T00:53:08;99959.00;;;4.40
20289;BMP180;10303;51.960;8.372;2022-12-11T00:55:40;99956.00;;;4.40
20289;BMP180;10303;51.960;8.372;2022-12-11T00:58:07;99967.00;;;4.40
20289;BMP180;10303;51.960;8.372;2022-12-11T01:00:33;99974.00;;;4.40
20289;BMP180;10303;51.960;8.372;2022-12-11T01:03:00;99964.00;;;4.40
20289;BMP180;10303;51.960;8.372;2022-12-11T01:05:26;99969.00;;;4.40
20289;BMP180;10303;51.960;8.372;2022-12-11T01:07:52;99958.00;;;4.40
20289;BMP180;10303;51.960;8.372;2022-12-11T01:10:18;99958.00;;;4.40
20289;BMP180;10303;51.960;8.372;2022-12-11T01:13:03;99967.00;;;4.40
20289;BMP180;10303;51.960;8.372;2022-12-11T01:15:43;99962.00;;;4.40
20289;BMP180;10303;51.960;8.372;2022-12-11T01:18:12;99955.00;;;4.40
20289;BMP180;10303;51.960;8.372;2022-12-11T01:20:40;99973.00;;;4.40
20289;BMP180;10303;51.960;8.372;2022-12-11T01:23:08;99964.00;;;4.40
20289;BMP180;10303;51.960;8.372;2022-12-11T01:25:36;99964.00;;;4.40
20289;BMP180;10303;51.960;8.372;2022-12-11T01:28:05;99968.00;;;4.40
20289;BMP180;10303;51.960;8.372;2022-12-11T01:30:32;99965.00;;;4.40
20289;BMP180;10303;51.960;8.372;2022-12-11T01:32:59;99955.00;;;4.40
20289;BMP180;10303;51.960;8.372;2022-12-11T01:35:26;99972.00;;;4.40
20289;BMP180;10303;51.960;8.372;2022-12-11T01:37:53;99972.00;;;4.40
20289;BMP180;10303;51.960;8.372;2022-12-11T01:40:20;99964.00;;;4.40
20289;BMP180;10303;51.960;8.372;2022-12-11T01:42:47;99970.00;;;4.40
20289;BMP180;10303;51.960;8.372;2022-12-11T01:48:01;99975.00;;;4.40
20289;BMP180;10303;51.960;8.372;2022-12-11T01:50:30;99968.00;;;4.40
20289;BMP180;10303;51.960;8.372;2022-12-11T01:52:59;99967.00;;;4.40
20289;BMP180;10303;51.960;8.372;2022-12-11T01:55:25;99963.00;;;4.40
20289;BMP180;10303;51.960;8.372;2022-12-11T01:57:52;99972.00;;;4.40
20289;BMP180;10303;51.960;8.372;2022-12-11T02:00:20;99970.00;;;4.30
20289;BMP180;10303;51.960;8.372;2022-12-11T02:02:46;99956.00;;;4.40
20289;BMP180;10303;51.960;8.372;2022-12-11T02:05:12;99962.00;;;4.30
20289;BMP180;10303;51.960;8.372;2022-12-11T02:07:54;99969.00;;;4.30
20289;BMP180;10303;51.960;8.372;2022-12-11T02:10:33;99961.00;;;4.30
20289;BMP180;10303;51.960;8.372;2022-12-11T02:13:14;99951.00;;;4.30
20289;BMP180;10303;51.960;8.372;2022-12-11T02:16:05;99951.00;;;4.30
20289;BMP180;10303;51.960;8.372;2022-12-11T02:18:43;99939.00;;;4.30
20289;BMP180;10303;51.960;8.372;2022-12-11T02:21:25;99952.00;;;4.30
20289;BMP180;10303;51.960;8.372;2022-12-11T02:27:10;99947.00;;;4.40
20289;BMP180;10303;51.960;8.372;2022-12-11T02:30:00;99940.00;;;4.30
20289;BMP180;10303;51.960;8.372;2022-12-11T02:32:57;99934.00;;;4.30
20289;BMP180;10303;51.960;8.372;2022-12-11T02:35:39;99942.00;;;4.30
20289;BMP180;10303;51.960;8.372;2022-12-11T02:38:17;99934.00;;;4.30
20289;BMP180;10303;51.960;8.372;2022-12-11T02:40:48;99926.00;;;4.30
20289;BMP180;10303;51.960;8.372;2022-12-11T02:43:17;99933.00;;;4.30
20289;BMP180;10303;51.960;8.372;2022-12-11T02:45:45;99941.00;;;4.30
20289;BMP180;10303;51.960;8.372;2022-12-11T02:48:13;99927.00;;;4.30
20289;BMP180;10303;51.960;8.372;2022-12-11T02:50:47;99923.00;;;4.30
20289;BMP180;10303;51.960;8.372;2022-12-11T02:53:19;99928.00;;;4.30
20289;BMP180;10303;51.960;8.372;2022-12-11T02:55:53;99933.00;;;4.30
20289;BMP180;10303;51.960;8.372;2022-12-11T02:58:28;99928.00;;;4.30
20289;BMP180;10303;51.960;8.372;2022-12-11T03:00:55;99933.00;;;4.30
20289;BMP180;10303;51.960;8.372;2022-12-11T03:03:22;99927.00;;;4.30
20289;BMP180;10303;51.960;8.372;2022-12-11T03:05:48;99928.00;;;4.20
20289;BMP180;10303;51.960;8.372;2022-12-11T03:08:14;99927.00;;;4.30
20289;BMP180;10303;51.960;8.372;2022-12-11T03:10:44;99920.00;;;4.20
20289;BMP180;10303;51.960;8.372;2022-12-11T03:13:15;99923.00;;;4.20
20289;BMP180;10303;51.960;8.372;2022-12-11T03:18:58;99932.00;;;4.20
20289;BMP180;10303;51.960;8.372;2022-12-11T03:21:37;99935.00;;;4.20
20289;BMP180;10303;51.960;8.372;2022-12-11T03:27:27;99929.00;;;4.10
20289;BMP180;10303;51.960;8.372;2022-12-11T03:30:12;99934.00;;;4.10
20289;BMP180;10303;51.960;8.372;2022-12-11T03:32:58;99933.00;;;4.10
20289;BMP180;10303;51.960;8.372;2022-12-11T03:35:37;99944.00;;;4.10
20289;BMP180;10303;51.960;8.372;2022-12-11T03:38:10;99942.00;;;4.20
20289;BMP180;10303;51.960;8.372;2022-12-11T03:40:42;99942.00;;;4.20
20289;BMP180;10303;51.960;8.372;2022-12-11T03:43:10;99936.00;;;4.20
20289;BMP180;10303;51.960;8.372;2022-12-11T03:45:39;99937.00;;;4.20
20289;BMP180;10303;51.960;8.372;2022-12-11T03:48:08;99940.00;;;4.20
20289;BMP180;10303;51.960;8.372;2022-12-11T03:50:36;99938.00;;;4.30
20289;BMP180;10303;51.960;8.372;2022-12-11T03:53:03;99933.00;;;4.20
20289;BMP180;10303;51.960;8.372;2022-12-11T03:55:32;99946.00;;;4.30
20289;BMP180;10303;51.960;8.372;2022-12-11T03:57:58;99941.00;;;4.30
20289;BMP180;10303;51.960;8.372;2022-12-11T04:00:24;99939.00;;;4.30
20289;BMP180;10303;51.960;8.372;2022-12-11T04:02:50;99942.00;;;4.30
20289;BMP180;10303;51.960;8.372;2022-12-11T04:05:35;99948.00;;;4.30
20289;BMP180;10303;51.960;8.372;2022-12-11T04:08:01;99939.00;;;4.30
20289;BMP180;10303;51.960;8.372;2022-12-11T04:10:28;99947.00;;;4.30
20289;BMP180;10303;51.960;8.372;2022-12-11T04:12:54;99948.00;;;4.40
20289;BMP180;10303;51.960;8.372;2022-12-11T04:15:20;99940.00;;;4.40
20289;BMP180;10303;51.960;8.372;2022-12-11T04:17:46;99939.00;;;4.40
20289;BMP180;10303;51.960;8.372;2022-12-11T04:20:30;99937.00;;;4.40
20289;BMP180;10303;51.960;8.372;2022-12-11T04:23:18;99945.00;;;4.30
20289;BMP180;10303;51.960;8.372;2022-12-11T04:26:11;99958.00;;;4.30
20289;BMP180;10303;51.960;8.372;2022-12-11T04:28:37;99935.00;;;4.40
20289;BMP180;10303;51.960;8.372;2022-12-11T04:31:04;99938.00;;;4.40
20289;BMP180;10303;51.960;8.372;2022-12-11T04:33:30;99931.00;;;4.40
20289;BMP180;10303;51.960;8.372;2022-12-11T04:35:58;99929.00;;;4.40
20289;BMP180;10303;51.960;8.372;2022-12-11T04:38:25;99936.00;;;4.40
20289;BMP180;10303;51.960;8.372;2022-12-11T04:41:04;99941.00;;;4.40
20289;BMP180;10303;51.960;8.372;2022-12-11T04:43:31;99944.00;;;4.40
20289;BMP180;10303;51.960;8.372;2022-12-11T04:46:10;99932.00;;;4.40
20289;BMP180;10303;51.960;8.372;2022-12-11T04:48:38;99945.00;;;4.40
20289;BMP180;10303;51.960;8.372;2022-12-11T04:51:05;99931.00;;;4.40
20289;BMP180;10303;51.960;8.372;2022-12-11T04:53:31;99937.00;;;4.40
20289;BMP180;10303;51.960;8.372;2022-12-11T04:55:57;99932.00;;;4.40
20289;BMP180;10303;51.960;8.372;2022-12-11T04:58:24;99941.00;;;4.40
20289;BMP180;10303;51.960;8.372;2022-12-11T05:00:51;99930.00;;;4.40
20289;BMP180;10303;51.960;8.372;2022-12-11T05:03:17;99930.00;;;4.40
20289;BMP180;10303;51.960;8.372;2022-12-11T05:05:52;99931.00;;;4.30
20289;BMP180;10303;51.960;8.372;2022-12-11T05:08:20;99935.00;;;4.30
20289;BMP180;10303;51.960;8.372;2022-12-11T05:11:01;99923.00;;;4.20
20289;BMP180;10303;51.960;8.372;2022-12-11T05:13:28;99929.00;;;4.20
20289;BMP180;10303;51.960;8.372;2022-12-11T05:15:55;99925.00;;;4.20
20289;BMP180;10303;51.960;8.372;2022-12-11T05:18:22;99927.00;;;4.20
20289;BMP180;10303;51.960;8.372;2022-12-11T05:21:05;99913.00;;;4.10
20289;BMP180;10303;51.960;8.372;2022-12-11T05:23:32;99921.00;;;4.10
20289;BMP180;10303;51.960;8.372;2022-12-11T05:26:03;99931.00;;;4.10
20289;BMP180;10303;51.960;8.372;2022-12-11T05:28:35;99923.00;;;4.10
20289;BMP180;10303;51.960;8.372;2022-12-11T05:31:12;99922.00;;;4.10
20289;BMP180;10303;51.960;8.372;2022-12-11T05:33:39;99923.00;;;4.10
20289;BMP180;10303;51.960;8.372;2022-12-11T05:36:07;99914.00;;;4.10
20289;BMP180;10303;51.960;8.372;2022-12-11T05:38:33;99910.00;;;4.00
20289;BMP180;10303;51.960;8.372;2022-12-11T05:41:05;99914.00;;;4.00
20289;BMP180;10303;51.960;8.372;2022-12-11T05:43:34;99912.00;;;4.00
20289;BMP180;10303;51.960;8.372;2022-12-11T05:46:06;99928.00;;;4.00
20289;BMP180;10303;51.960;8.372;2022-12-11T05:48:33;99909.00;;;4.00
20289;BMP180;10303;51.960;8.372;2022-12-11T05:51:01;99928.00;;;4.00
20289;BMP180;10303;51.960;8.372;2022-12-11T05:53:28;99925.00;;;4.00
20289;BMP180;10303;51.960;8.372;2022-12-11T05:56:00;99931.00;;;4.00
20289;BMP180;10303;51.960;8.372;2022-12-11T05:58:27;99922.00;;;4.00
20289;BMP180;10303;51.960;8.372;2022-12-11T06:00:53;99918.00;;;4.00
20289;BMP180;10303;51.960;8.372;2022-12-11T06:03:19;99926.00;;;4.00
20289;BMP180;10303;51.960;8.372;2022-12-11T06:05:45;99919.00;;;4.00
20289;BMP180;10303;51.960;8.372;2022-12-11T06:08:11;99915.00;;;4.00
20289;BMP180;10303;51.960;8.372;2022-12-11T06:10:44;99932.00;;;4.00
20289;BMP180;10303;51.960;8.372;2022-12-11T06:13:10;99925.00;;;4.00
20289;BMP180;10303;51.960;8.372;2022-12-11T06:15:36;99925.00;;;4.00
20289;BMP180;10303;51.960;8.372;2022-12-11T06:18:02;99916.00;;;4.00
20289;BMP180;10303;51.960;8.372;2022-12-11T06:20:31;99920.00;;;4.00
20289;BMP180;10303;51.960;8.372;2022-12-11T06:22:59;99905.00;;;4.00
20289;BMP180;10303;51.960;8.372;2022-12-11T06:25:25;99910.00;;;3.90
20289;BMP180;10303;51.960;8.372;2022-12-11T06:27:51;99911.00;;;4.00
20289;BMP180;10303;51.960;8.372;2022-12-11T06:30:17;99917.00;;;4.00
20289;BMP180;10303;51.960;8.372;2022-12-11T06:32:43;99904.00;;;4.00
20289;BMP180;10303;51.960;8.372;2022-12-11T06:35:10;99900.00;;;4.00
20289;BMP180;10303;51.960;8.372;2022-12-11T06:37:38;99912.00;;;4.00
20289;BMP180;10303;51.960;8.372;2022-12-11T06:40:08;99910.00;;;4.00
20289;BMP180;10303;51.960;8.372;2022-12-11T06:42:35;99909.00;;;4.10
20289;BMP180;10303;51.960;8.372;2022-12-11T06:45:00;99904.00;;;4.10
20289;BMP180;10303;51.960;8.372;2022-12-11T06:47:28;99902.00;;;4.00
20289;BMP180;10303;51.960;8.372;2022-12-11T06:49:55;99909.00;;;4.10
20289;BMP180;10303;51.960;8.372;2022-12-11T06:52:23;99908.00;;;4.00
20289;BMP180;10303;51.960;8.372;2022-12-11T06:54:50;99917.00;;;4.00
20289;BMP180;10303;51.960;8.372;2022-12-11T06:57:16;99924.00;;;4.00
20289;BMP180;10303;51.960;8.372;2022-12-11T06:59:43;99924.00;;;4.00
20289;BMP180;10303;51.960;8.372;2022-12-11T07:02:15;99913.00;;;4.00
20289;BMP180;10303;51.960;8.372;2022-12-11T07:04:42;99910.00;;;4.00
20289;BMP180;10303;51.960;8.372;2022-12-11T07:07:09;99905.00;;;4.00
20289;BMP180;10303;51.960;8.372;2022-12-11T07:09:38;99906.00;;;4.00
20289;BMP180;10303;51.960;8.372;2022-12-11T07:12:05;99912.00;;;4.00
20289;BMP180;10303;51.960;8.372;2022-12-11T07:14:32;99902.00;;;4.00
20289;BMP180;10303;51.960;8.372;2022-12-11T07:16:58;99912.00;;;4.00
20289;BMP180;10303;51.960;8.372;2022-12-11T07:19:25;99915.00;;;4.00
20289;BMP180;10303;51.960;8.372;2022-12-11T07:21:51;99909.00;;;4.00
20289;BMP180;10303;51.960;8.372;2022-12-11T07:24:18;99909.00;;;4.00
20289;BMP180;10303;51.960;8.372;2022-12-11T07:26:44;99905.00;;;4.00
20289;BMP180;10303;51.960;8.372;2022-12-11T07:29:10;99918.00;;;4.00
20289;BMP180;10303;51.960;8.372;2022-12-11T07:31:36;99917.00;;;4.00
20289;BMP180;10303;51.960;8.372;2022-12-11T07:34:05;99925.00;;;4.00
20289;BMP180;10303;51.960;8.372;2022-12-11T07:36:32;99924.00;;;4.00
20289;BMP180;10303;51.960;8.372;2022-12-11T07:38:59;99919.00;;;4.00
20289;BMP180;10303;51.960;8.372;2022-12-11T07:41:26;99927.00;;;4.00
20289;BMP180;10303;51.960;8.372;2022-12-11T07:43:59;99930.00;;;4.00
20289;BMP180;10303;51.960;8.372;2022-12-11T07:46:29;99924.00;;;4.00
20289;BMP180;10303;51.960;8.372;2022-12-11T07:48:56;99924.00;;;3.90
20289;BMP180;10303;51.960;8.372;2022-12-11T07:51:28;99933.00;;;3.90
20289;BMP180;10303;51.960;8.372;2022-12-11T07:54:00;99932.00;;;3.90
20289;BMP180;10303;51.960;8.372;2022-12-11T07:56:28;99932.00;;;3.80
20289;BMP180;10303;51.960;8.372;2022-12-11T07:58:54;99918.00;;;3.70
20289;BMP180;10303;51.960;8.372;2022-12-11T08:01:24;99934.00;;;3.70
20289;BMP180;10303;51.960;8.372;2022-12-11T08:03:52;99929.00;;;3.60
20289;BMP180;10303;51.960;8.372;2022-12-11T08:06:19;99930.00;;;3.50
20289;BMP180;10303;51.960;8.372;2022-12-11T08:08:49;99938.00;;;3.50
20289;BMP180;10303;51.960;8.372;2022-12-11T08:11:15;99931.00;;;3.50
20289;BMP180;10303;51.960;8.372;2022-12-11T08:13:42;99943.00;;;3.40
20289;BMP180;10303;51.960;8.372;2022-12-11T08:16:12;99940.00;;;3.40
20289;BMP180;10303;51.960;8.372;2022-12-11T08:18:39;99932.00;;;3.40
20289;BMP180;10303;51.960;8.372;2022-12-11T08:21:12;99934.00;;;3.40
20289;BMP180;10303;51.960;8.372;2022-12-11T08:23:38;99940.00;;;3.40
20289;BMP180;10303;51.960;8.372;2022-12-11T08:26:09;99945.00;;;3.50
20289;BMP180;10303;51.960;8.372;2022-12-11T08:28:36;99937.00;;;3.50
20289;BMP180;10303;51.960;8.372;2022-12-11T08:31:06;99930.00;;;3.60
20289;BMP180;10303;51.960;8.372;2022-12-11T08:33:33;99933.00;;;3.60
20289;BMP180;10303;51.960;8.372;2022-12-11T08:36:06;99933.00;;;3.70
20289;BMP180;10303;51.960;8.372;2022-12-11T08:38:34;99939.00;;;3.70
20289;BMP180;10303;51.960;8.372;2022-12-11T08:41:12;99946.00;;;3.70
20289;BMP180;10303;51.960;8.372;2022-12-11T08:43:38;99945.00;;;3.70
20289;BMP180;10303;51.960;8.372;2022-12-11T08:46:06;99945.00;;;3.80
20289;BMP180;10303;51.960;8.372;2022-12-11T08:48:37;99945.00;;;3.80
20289;BMP180;10303;51.960;8.372;2022-12-11T08:51:08;99952.00;;;3.80
20289;BMP180;10303;51.960;8.372;2022-12-11T08:53:35;99947.00;;;3.80
20289;BMP180;10303;51.960;8.372;2022-12-11T08:56:14;99947.00;;;3.80
20289;BMP180;10303;51.960;8.372;2022-12-11T08:58:41;99949.00;;;3.80
20289;BMP180;10303;51.960;8.372;2022-12-11T09:01:13;99948.00;;;3.70
20289;BMP180;10303;51.960;8.372;2022-12-11T09:03:40;99944.00;;;3.70
20289;BMP180;10303;51.960;8.372;2022-12-11T09:06:10;99938.00;;;3.60
20289;BMP180;10303;51.960;8.372;2022-12-11T09:08:37;99937.00;;;3.50
20289;BMP180;10303;51.960;8.372;2022-12-11T09:11:10;99947.00;;;3.40
20289;BMP180;10303;51.960;8.372;2022-12-11T09:13:39;99940.00;;;3.30
20289;BMP180;10303;51.960;8.372;2022-12-11T09:16:10;99948.00;;;3.30
20289;BMP180;10303;51.960;8.372;2022-12-11T09:18:37;99941.00;;;3.30
20289;BMP180;10303;51.960;8.372;2022-12-11T09:21:11;99952.00;;;3.30
20289;BMP180;10303;51.960;8.372;2022-12-11T09:23:38;99936.00;;;3.40
20289;BMP180;10303;51.960;8.372;2022-12-11T09:26:14;99940.00;;;3.40
20289;BMP180;10303;51.960;8.372;2022-12-11T09:28:41;99937.00;;;3.50
20289;BMP180;10303;51.960;8.372;2022-12-11T09:31:18;99946.00;;;3.50
20289;BMP180;10303;51.960;8.372;2022-12-11T09:33:45;99940.00;;;3.50
20289;BMP180;10303;51.960;8.372;2022-12-11T09:36:12;99936.00;;;3.60
20289;BMP180;10303;51.960;8.372;2022-12-11T09:38:38;99930.00;;;3.60
20289;BMP180;10303;51.960;8.372;2022-12-11T09:43:51;99930.00;;;3.70
20289;BMP180;10303;51.960;8.372;2022-12-11T09:46:19;99932.00;;;3.70
20289;BMP180;10303;51.960;8.372;2022-12-11T09:49:04;99923.00;;;3.70
20289;BMP180;10303;51.960;8.372;2022-12-11T09:51:44;99928.00;;;3.80
20289;BMP180;10303;51.960;8.372;2022-12-11T09:54:13;99916.00;;;3.80
20289;BMP180;10303;51.960;8.372;2022-12-11T09:57:04;99926.00;;;3.80
20289;BMP180;10303;51.960;8.372;2022-12-11T10:02:45;99926.00;;;3.80
20289;BMP180;10303;51.960;8.372;2022-12-11T10:12:01;99923.00;;;3.90
20289;BMP180;10303;51.960;8.372;2022-12-11T10:14:43;99921.00;;;3.90
20289;BMP180;10303;51.960;8.372;2022-12-11T10:17:18;99915.00;;;3.90
20289;BMP180;10303;51.960;8.372;2022-12-11T10:19:47;99902.00;;;4.00
20289;BMP180;10303;51.960;8.372;2022-12-11T10:22:21;99910.00;;;4.00
20289;BMP180;10303;51.960;8.372;2022-12-11T10:24:57;99896.00;;;4.00
20289;BMP180;10303;51.960;8.372;2022-12-11T10:27:30;99900.00;;;4.00
20289;BMP180;10303;51.960;8.372;2022-12-11T10:35:38;99897.00;;;4.10
20289;BMP180;10303;51.960;8.372;2022-12-11T10:41:04;99896.00;;;4.10
20289;BMP180;10303;51.960;8.372;2022-12-11T10:43:41;99884.00;;;4.10
20289;BMP180;10303;51.960;8.372;2022-12-11T10:48:51;99902.00;;;4.10
20289;BMP180;10303;51.960;8.372;2022-12-11T10:51:32;99902.00;;;4.10
20289;BMP180;10303;51.960;8.372;2022-12-11T10:54:35;99894.00;;;4.10
20289;BMP180;10303;51.960;8.372;2022-12-11T10:57:07;99909.00;;;4.10
20289;BMP180;10303;51.960;8.372;2022-12-11T10:59:48;99917.00;;;4.10
20289;BMP180;10303;51.960;8.372;2022-12-11T11:02:31;99906.00;;;4.20
20289;BMP180;10303;51.960;8.372;2022-12-11T11:05:11;99901.00;;;4.20
20289;BMP180;10303;51.960;8.372;2022-12-11T11:07:38;99907.00;;;4.20
20289;BMP180;10303;51.960;8.372;2022-12-11T11:12:46;99907.00;;;4.30
20289;BMP180;10303;51.960;8.372;2022-12-11T11:15:23;99909.00;;;4.30
20289;BMP180;10303;51.960;8.372;2022-12-11T11:18:09;99908.00;;;4.30
20289;BMP180;10303;51.960;8.372;2022-12-11T11:20:43;99894.00;;;4.30
20289;BMP180;10303;51.960;8.372;2022-12-11T11:23:14;99882.00;;;4.30
20289;BMP180;10303;51.960;8.372;2022-12-11T11:25:51;99890.00;;;4.30
20289;BMP180;10303;51.960;8.372;2022-12-11T11:28:29;99885.00;;;4.30
20289;BMP180;10303;51.960;8.372;2022-12-11T11:31:10;99877.00;;;4.30
20289;BMP180;10303;51.960;8.372;2022-12-11T11:33:56;99876.00;;;4.30
20289;BMP180;10303;51.960;8.372;2022-12-11T11:36:28;99873.00;;;4.40
20289;BMP180;10303;51.960;8.372;2022-12-11T11:39:28;99876.00;;;4.40
20289;BMP180;10303;51.960;8.372;2022-12-11T11:42:18;99885.00;;;4.30
20289;BMP180;10303;51.960;8.372;2022-12-11T11:45:05;99879.00;;;4.40
20289;BMP180;10303;51.960;8.372;2022-12-11T11:47:48;99874.00;;;4.40
20289;BMP180;10303;51.960;8.372;2022-12-11T11:50:26;99872.00;;;4.40
20289;BMP180;10303;51.960;8.372;2022-12-11T11:53:14;99869.00;;;4.40
20289;BMP180;10303;51.960;8.372;2022-12-11T11:59:30;99865.00;;;4.30
20289;BMP180;10303;51.960;8.372;2022-12-11T12:01:58;99864.00;;;4.40
20289;BMP180;10303;51.960;8.372;2022-12-11T12:04:33;99870.00;;;4.40
20289;BMP180;10303;51.960;8.372;2022-12-11T12:07:21;99867.00;;;4.40
20289;BMP180;10303;51.960;8.372;2022-12-11T12:13:05;99862.00;;;4.30
20289;BMP180;10303;51.960;8.372;2022-12-11T12:15:42;99875.00;;;4.30
20289;BMP180;10303;51.960;8.372;2022-12-11T12:18:42;99860.00;;;4.30
20289;BMP180;10303;51.960;8.372;2022-12-11T12:21:34;99863.00;;;4.30
20289;BMP180;10303;51.960;8.372;2022-12-11T12:30:17;99868.00;;;4.30
20289;BMP180;10303;51.960;8.372;2022-12-11T12:33:23;99869.00;;;4.30
20289;BMP180;10303;51.960;8.372;2022-12-11T12:36:31;99861.00;;;4.30
20289;BMP180;10303;51.960;8.372;2022-12-11T12:39:12;99850.00;;;4.30
20289;BMP180;10303;51.960;8.372;2022-12-11T12:44:45;99852.00;;;4.30
20289;BMP180;10303;51.960;8.372;2022-12-11T12:47:17;99837.00;;;4.30
20289;BMP180;10303;51.960;8.372;2022-12-11T12:49:49;99860.00;;;4.30
20289;BMP180;10303;51.960;8.372;2022-12-11T12:52:30;99850.00;;;4.40
20289;BMP180;10303;51.960;8.372;2022-12-11T12:55:04;99852.00;;;4.40
20289;BMP180;10303;51.960;8.372;2022-12-11T12:57:49;99848.00;;;4.40
20289;BMP180;10303;51.960;8.372;2022-12-11T13:00:34;99847.00;;;4.40
20289;BMP180;10303;51.960;8.372;2022-12-11T13:03:14;99849.00;;;4.40
20289;BMP180;10303;51.960;8.372;2022-12-11T13:05:52;99846.00;;;4.40
20289;BMP180;10303;51.960;8.372;2022-12-11T13:08:26;99838.00;;;4.40
20289;BMP180;10303;51.960;8.372;2022-12-11T13:11:09;99842.00;;;4.40
20289;BMP180;10303;51.960;8.372;2022-12-11T13:13:47;99838.00;;;4.40
20289;BMP180;10303;51.960;8.372;2022-12-11T13:18:44;99827.00;;;4.50
20289;BMP180;10303;51.960;8.372;2022-12-11T13:21:35;99836.00;;;4.50
20289;BMP180;10303;51.960;8.372;2022-12-11T13:26:39;99822.00;;;4.50
20289;BMP180;10303;51.960;8.372;2022-12-11T13:34:56;99831.00;;;4.50
20289;BMP180;10303;51.960;8.372;2022-12-11T13:37:40;99839.00;;;4.50
20289;BMP180;10303;51.960;8.372;2022-12-11T13:40:16;99837.00;;;4.50
20289;BMP180;10303;51.960;8.372;2022-12-11T13:42:50;99838.00;;;4.50
20289;BMP180;10303;51.960;8.372;2022-12-11T13:45:25;99824.00;;;4.50
20289;BMP180;10303;51.960;8.372;2022-12-11T13:47:52;99829.00;;;4.50
20289;BMP180;10303;51.960;8.372;2022-12-11T13:50:25;99844.00;;;4.50
20289;BMP180;10303;51.960;8.372;2022-12-11T13:52:59;99843.00;;;4.50
20289;BMP180;10303;51.960;8.372;2022-12-11T13:55:33;99851.00;;;4.50
20289;BMP180;10303;51.960;8.372;2022-12-11T13:58:00;99841.00;;;4.60
20289;BMP180;10303;51.960;8.372;2022-12-11T14:00:29;99854.00;;;4.60
20289;BMP180;10303;51.960;8.372;2022-12-11T14:03:04;99861.00;;;4.50
20289;BMP180;10303;51.960;8.372;2022-12-11T14:05:33;99862.00;;;4.60
20289;BMP180;10303;51.960;8.372;2022-12-11T14:08:06;99850.00;;;4.60
20289;BMP180;10303;51.960;8.372;2022-12-11T14:10:37;99868.00;;;4.60
20289;BMP180;10303;51.960;8.372;2022-12-11T14:13:23;99855.00;;;4.60
20289;BMP180;10303;51.960;8.372;2022-12-11T14:15:51;99872.00;;;4.60
20289;BMP180;10303;51.960;8.372;2022-12-11T14:18:26;99864.00;;;4.60
20289;BMP180;10303;51.960;8.372;2022-12-11T14:21:00;99858.00;;;4.60
20289;BMP180;10303;51.960;8.372;2022-12-11T14:23:32;99860.00;;;4.60
20289;BMP180;10303;51.960;8.372;2022-12-11T14:26:25;99852.00;;;4.60
20289;BMP180;10303;51.960;8.372;2022-12-11T14:28:52;99849.00;;;4.60
20289;BMP180;10303;51.960;8.372;2022-12-11T14:31:42;99854.00;;;4.60
20289;BMP180;10303;51.960;8.372;2022-12-11T14:34:19;99855.00;;;4.60
20289;BMP180;10303;51.960;8.372;2022-12-11T14:36:47;99861.00;;;4.60
20289;BMP180;10303;51.960;8.372;2022-12-11T14:39:40;99872.00;;;4.60
20289;BMP180;10303;51.960;8.372;2022-12-11T14:42:21;99856.00;;;4.50
20289;BMP180;10303;51.960;8.372;2022-12-11T14:44:54;99862.00;;;4.50
20289;BMP180;10303;51.960;8.372;2022-12-11T14:47:32;99871.00;;;4.50
20289;BMP180;10303;51.960;8.372;2022-12-11T14:50:07;99842.00;;;4.50
20289;BMP180;10303;51.960;8.372;2022-12-11T14:52:55;99863.00;;;4.50
20289;BMP180;10303;51.960;8.372;2022-12-11T14:55:32;99871.00;;;4.50
20289;BMP180;10303;51.960;8.372;2022-12-11T14:58:03;99854.00;;;4.50
20289;BMP180;10303;51.960;8.372;2022-12-11T15:00:36;99862.00;;;4.50
20289;BMP180;10303;51.960;8.372;2022-12-11T15:03:21;99863.00;;;4.50
20289;BMP180;10303;51.960;8.372;2022-12-11T15:05:55;99870.00;;;4.50
20289;BMP180;10303;51.960;8.372;2022-12-11T15:08:26;99873.00;;;4.50
20289;BMP180;10303;51.960;8.372;2022-12-11T15:11:15;99866.00;;;4.50
20289;BMP180;10303;51.960;8.372;2022-12-11T15:13:58;99873.00;;;4.50
20289;BMP180;10303;51.960;8.372;2022-12-11T15:16:30;99878.00;;;4.50
20289;BMP180;10303;51.960;8.372;2022-12-11T15:18:59;99875.00;;;4.50
20289;BMP180;10303;51.960;8.372;2022-12-11T15:21:30;99866.00;;;4.50
20289;BMP180;10303;51.960;8.372;2022-12-11T15:24:03;99864.00;;;4.50
20289;BMP180;10303;51.960;8.372;2022-12-11T15:26:43;99872.00;;;4.40
20289;BMP180;10303;51.960;8.372;2022-12-11T15:29:36;99884.00;;;4.40
20289;BMP180;10303;51.960;8.372;2022-12-11T15:34:49;99878.00;;;4.40
20289;BMP180;10303;51.960;8.372;2022-12-11T15:37:23;99880.00;;;4.40
20289;BMP180;10303;51.960;8.372;2022-12-11T15:39:51;99884.00;;;4.50
20289;BMP180;10303;51.960;8.372;2022-12-11T15:42:40;99872.00;;;4.40
20289;BMP180;10303;51.960;8.372;2022-12-11T15:45:14;99884.00;;;4.50
20289;BMP180;10303;51.960;8.372;2022-12-11T15:47:42;99880.00;;;4.60
20289;BMP180;10303;51.960;8.372;2022-12-11T15:50:14;99887.00;;;4.60
20289;BMP180;10303;51.960;8.372;2022-12-11T15:52:42;99880.00;;;4.70
20289;BMP180;10303;51.960;8.372;2022-12-11T15:55:09;99883.00;;;4.70
20289;BMP180;10303;51.960;8.372;2022-12-11T15:57:37;99891.00;;;4.70
20289;BMP180;10303;51.960;8.372;2022-12-11T16:00:06;99893.00;;;4.70